Time;durP1;ratioP1;P1;durP2;ratioP2;P2;SDS_P1;SDS_P2;PMS_P1;PMS_P2;Temp;Humidity;BMP_temperature;BMP_pressure;BME280_temperature;BME280_humidity;BME280_pressure;Samples;Min_cycle;Max_cycle;Signal;HPM_P1;HPM_P2
2023/06/21 00:00:37;;;;;;;13.27;9.73;;;19.20;99.90;;;;;;5135199;27;20055;-72
2023/06/21 00:03:06;;;;;;;15.97;10.20;;;19.20;99.90;;;;;;5133573;27;20043;-72
2023/06/21 00:05:32;;;;;;;14.27;10.13;;;19.20;99.90;;;;;;5115675;27;20195;-72
2023/06/21 00:07:58;;;;;;;15.32;11.02;;;19.30;99.90;;;;;;5133459;27;20510;-73
2023/06/21 00:10:25;;;;;;;15.05;10.95;;;19.20;99.90;;;;;;5134830;27;20368;-72
2023/06/21 00:12:51;;;;;;;;;;;19.20;99.90;;;;;;5135413;27;20050;-71
2023/06/21 00:15:17;;;;;;;14.20;10.35;;;19.20;99.90;;;;;;5116509;27;19919;-72
2023/06/21 00:17:43;;;;;;;17.67;11.90;;;19.10;99.90;;;;;;5116898;27;20084;-72
2023/06/21 00:20:10;;;;;;;15.73;11.65;;;19.10;99.90;;;;;;5099964;27;20043;-71
2023/06/21 00:22:36;;;;;;;;;;;19.10;99.90;;;;;;5134867;27;20058;-72
2023/06/21 00:25:02;;;;;;;17.55;11.45;;;19.00;99.90;;;;;;5116653;27;19919;-71
2023/06/21 00:27:28;;;;;;;16.53;11.13;;;19.00;99.90;;;;;;5099261;27;20053;-72
2023/06/21 00:29:53;;;;;;;18.03;11.63;;;18.90;99.90;;;;;;5116397;27;20107;-71
2023/06/21 00:32:19;;;;;;;17.97;12.77;;;18.90;99.90;;;;;;5115960;27;20479;-72
2023/06/21 00:34:47;;;;;;;18.37;13.23;;;18.90;99.90;;;;;;5116479;27;20074;-71
2023/06/21 00:37:13;;;;;;;17.13;12.07;;;18.90;99.90;;;;;;5133842;27;20050;-72
2023/06/21 00:39:39;;;;;;;20.23;13.05;;;18.80;99.90;;;;;;5134163;27;20054;-71
2023/06/21 00:42:09;;;;;;;19.63;12.90;;;18.80;99.90;;;;;;5099291;27;20402;-70
2023/06/21 00:44:35;;;;;;;18.27;13.45;;;18.70;99.90;;;;;;5133960;27;20078;-71
2023/06/21 00:47:01;;;;;;;18.80;13.63;;;18.70;99.90;;;;;;5115735;27;20461;-71
2023/06/21 00:49:27;;;;;;;19.83;13.93;;;18.70;99.90;;;;;;5115857;27;20053;-71
2023/06/21 00:51:57;;;;;;;22.23;14.27;;;18.70;99.90;;;;;;5134455;27;20089;-71
2023/06/21 00:54:29;;;;;;;20.98;14.73;;;18.70;99.90;;;;;;5133858;27;20047;-73
2023/06/21 00:56:56;;;;;;;23.95;15.13;;;18.60;99.90;;;;;;5134300;27;20040;-71
2023/06/21 00:59:23;;;;;;;21.67;14.48;;;18.60;99.90;;;;;;5115496;27;20074;-72
2023/06/21 01:01:49;;;;;;;19.98;14.18;;;18.50;99.90;;;;;;5132865;27;20511;-74
2023/06/21 01:04:15;;;;;;;27.80;14.87;;;18.50;99.90;;;;;;5124365;27;20058;-71
2023/06/21 01:07:06;;;;;;;23.90;15.87;;;18.50;99.90;;;;;;5113033;28;20046;-70
2023/06/21 01:10:00;;;;;;;20.63;14.55;;;18.50;99.90;;;;;;5112940;28;20054;-71
2023/06/21 01:12:46;;;;;;;25.15;16.30;;;18.50;99.90;;;;;;5022574;28;20516;-73
2023/06/21 01:15:34;;;;;;;23.13;16.10;;;18.40;99.90;;;;;;5093858;28;20051;-71
2023/06/21 01:18:01;;;;;;;23.73;16.13;;;18.40;99.90;;;;;;5113251;28;20487;-72
2023/06/21 01:20:29;;;;;;;24.55;16.40;;;18.40;99.90;;;;;;5123745;27;20047;-71
2023/06/21 01:23:25;;;;;;;24.73;16.42;;;18.40;99.90;;;;;;5098365;27;20138;-70
2023/06/21 01:26:12;;;;;;;27.23;16.42;;;18.40;99.90;;;;;;5133783;27;20506;-71
2023/06/21 01:28:44;;;;;;;25.65;17.20;;;18.40;99.90;;;;;;5133080;27;20054;-71
2023/06/21 01:31:16;;;;;;;24.95;16.38;;;18.40;99.90;;;;;;5115675;27;20047;-71
2023/06/21 01:33:43;;;;;;;24.55;16.20;;;18.40;99.90;;;;;;5133398;27;20051;-72
2023/06/21 01:36:12;;;;;;;25.02;16.50;;;18.40;99.90;;;;;;5133751;27;20126;-72
2023/06/21 01:38:37;;;;;;;24.73;16.20;;;18.40;99.90;;;;;;5114690;28;20046;-71
2023/06/21 01:41:03;;;;;;;25.37;17.17;;;18.40;99.90;;;;;;5115194;27;20039;-72
2023/06/21 01:43:30;;;;;;;25.40;16.47;;;18.40;99.90;;;;;;5115168;28;20039;-71
2023/06/21 01:45:59;;;;;;;26.92;16.52;;;18.40;99.90;;;;;;5098305;28;20394;-72
2023/06/21 01:48:25;;;;;;;27.30;17.23;;;18.40;99.90;;;;;;5120484;27;20038;-73
2023/06/21 01:50:52;;;;;;;27.73;17.97;;;18.40;99.90;;;;;;5122158;27;20050;-71
2023/06/21 01:53:19;;;;;;;26.38;17.33;;;18.40;99.90;;;;;;5140300;27;20055;-72
2023/06/21 01:55:49;;;;;;;28.67;18.00;;;18.50;99.90;;;;;;5139654;27;20073;-72
2023/06/21 01:58:16;;;;;;;28.05;18.73;;;18.50;99.90;;;;;;5122553;27;20420;-70
2023/06/21 02:00:41;;;;;;;;;;;18.60;99.90;;;;;;5140449;27;20055;-71
2023/06/21 02:03:13;;;;;;;27.50;18.13;;;18.70;99.90;;;;;;5104996;27;19991;-71
2023/06/21 02:05:41;;;;;;;30.00;19.73;;;18.70;99.90;;;;;;5122309;27;20043;-71
2023/06/21 02:08:15;;;;;;;31.05;19.05;;;18.70;99.90;;;;;;5122012;27;20051;-73
2023/06/21 02:10:46;;;;;;;35.33;21.55;;;18.70;99.90;;;;;;5139911;27;20055;-72
2023/06/21 02:13:14;;;;;;;32.03;22.25;;;18.70;99.90;;;;;;5122376;27;20043;-72
2023/06/21 02:15:43;;;;;;;32.63;22.33;;;18.70;99.90;;;;;;5139626;27;20501;-73
2023/06/21 02:18:12;;;;;;;33.53;22.60;;;18.70;99.90;;;;;;5121735;27;20042;-73
2023/06/21 02:20:38;;;;;;;31.83;21.58;;;18.60;99.90;;;;;;5139470;27;20103;-73
2023/06/21 02:23:04;;;;;;;35.53;22.97;;;18.50;99.90;;;;;;5121952;27;20039;-72
2023/06/21 02:25:35;;;;;;;32.17;22.05;;;18.50;99.90;;;;;;5104481;27;20043;-72
2023/06/21 02:28:01;;;;;;;37.88;22.80;;;18.50;99.90;;;;;;5121887;27;20104;-73
2023/06/21 02:30:29;;;;;;;34.38;21.85;;;18.40;99.90;;;;;;5121794;27;20047;-72
2023/06/21 02:32:54;;;;;;;36.17;24.13;;;18.40;99.90;;;;;;5121932;27;20062;-73
2023/06/21 02:35:20;;;;;;;32.57;22.60;;;18.30;99.90;;;;;;5104727;27;20410;-72
2023/06/21 02:37:47;;;;;;;34.17;21.63;;;18.30;99.90;;;;;;5121393;27;20035;-71
2023/06/21 02:40:13;;;;;;;;;;;18.20;99.90;;;;;;5122417;27;20115;-71
2023/06/21 02:42:40;;;;;;;31.42;20.65;;;18.20;99.90;;;;;;5139526;27;20002;-71
2023/06/21 02:45:07;;;;;;;34.92;22.20;;;18.20;99.90;;;;;;5121297;27;20051;-71
2023/06/21 02:47:33;;;;;;;34.28;21.45;;;18.10;99.90;;;;;;5121127;27;20387;-72
2023/06/21 02:49:59;;;;;;;32.30;20.63;;;18.00;99.90;;;;;;5139786;27;20054;-72
2023/06/21 02:52:25;;;;;;;35.07;22.20;;;18.00;99.90;;;;;;5139981;27;20039;-66
2023/06/21 02:54:52;;;;;;;31.73;21.90;;;18.00;99.90;;;;;;5140622;27;20051;-68
2023/06/21 02:57:19;;;;;;;36.45;22.38;;;18.00;99.90;;;;;;5140303;27;20046;-69
2023/06/21 02:59:45;;;;;;;37.47;22.73;;;18.00;99.90;;;;;;5119341;27;20050;-68
2023/06/21 03:02:11;;;;;;;33.83;21.90;;;18.00;99.90;;;;;;5136797;27;20414;-68
2023/06/21 03:04:37;;;;;;;36.42;22.88;;;17.90;99.90;;;;;;5137083;27;20050;-68
2023/06/21 03:07:05;;;;;;;36.87;23.10;;;17.90;99.90;;;;;;5137251;27;20039;-68
2023/06/21 03:09:32;;;;;;;36.03;21.35;;;17.90;99.90;;;;;;5137087;27;20043;-68
2023/06/21 03:11:58;;;;;;;36.22;21.27;;;17.90;99.90;;;;;;5118980;27;20487;-67
2023/06/21 03:14:23;;;;;;;36.80;22.97;;;17.90;99.90;;;;;;5137076;27;20046;-68
2023/06/21 03:16:52;;;;;;;45.20;24.27;;;17.80;99.90;;;;;;5137800;27;20042;-68
2023/06/21 03:19:18;;;;;;;35.00;22.90;;;17.80;99.90;;;;;;5137565;27;20050;-69
2023/06/21 03:21:43;;;;;;;35.87;20.37;;;17.80;99.90;;;;;;5118570;27;20036;-69
2023/06/21 03:24:09;;;;;;;36.30;23.97;;;17.80;99.90;;;;;;5118800;27;20051;-68
2023/06/21 03:26:38;;;;;;;35.70;23.13;;;17.80;99.90;;;;;;5136485;27;20046;-68
2023/06/21 03:29:03;;;;;;;36.13;22.60;;;17.90;99.90;;;;;;5136855;27;20039;-68
2023/06/21 03:31:29;;;;;;;38.20;23.40;;;17.90;99.90;;;;;;5136681;27;20047;-69
2023/06/21 03:33:55;;;;;;;37.33;22.03;;;17.80;99.90;;;;;;5136612;27;20043;-68
2023/06/21 03:36:21;;;;;;;33.73;21.37;;;17.90;99.90;;;;;;5101909;27;20051;-67
2023/06/21 03:38:46;;;;;;;41.50;24.30;;;17.80;99.90;;;;;;5136610;27;20443;-69
2023/06/21 03:41:12;;;;;;;36.60;23.40;;;17.80;99.90;;;;;;5136950;27;20129;-69
2023/06/21 03:43:38;;;;;;;39.43;23.60;;;17.90;99.90;;;;;;5136583;27;20055;-72
2023/06/21 03:46:03;;;;;;;39.97;22.47;;;17.90;99.90;;;;;;5136712;27;20122;-68
2023/06/21 03:48:29;;;;;;;40.53;25.60;;;17.90;99.90;;;;;;5118874;27;20046;-68
2023/06/21 03:50:55;;;;;;;41.43;24.63;;;18.00;99.90;;;;;;5137187;27;20055;-68
2023/06/21 03:53:20;;;;;;;40.57;25.57;;;17.90;99.90;;;;;;5101673;27;20538;-69
2023/06/21 03:55:46;;;;;;;40.30;25.03;;;17.90;99.90;;;;;;5117923;27;20047;-69
2023/06/21 03:58:12;;;;;;;45.40;26.27;;;17.90;99.90;;;;;;5137421;27;20047;-68
2023/06/21 04:00:38;;;;;;;41.50;25.67;;;17.90;99.90;;;;;;5135906;27;20137;-69
2023/06/21 04:03:04;;;;;;;39.17;24.73;;;17.90;99.90;;;;;;5136615;27;20517;-69
2023/06/21 04:05:30;;;;;;;38.77;25.27;;;17.90;99.90;;;;;;5118197;27;20043;-68
2023/06/21 04:07:56;;;;;;;43.73;26.43;;;17.90;99.90;;;;;;5117619;27;20081;-68
2023/06/21 04:10:21;;;;;;;43.90;26.13;;;17.90;99.90;;;;;;5116935;28;20055;-68
2023/06/21 04:12:47;;;;;;;42.40;26.53;;;18.00;99.90;;;;;;5118464;27;20127;-69
2023/06/21 04:15:13;;;;;;;42.20;26.27;;;18.00;99.90;;;;;;5135742;27;20043;-69
2023/06/21 04:17:39;;;;;;;43.30;26.27;;;18.00;99.90;;;;;;5100742;27;20047;-69
2023/06/21 04:20:10;;;;;;;44.63;27.10;;;18.00;99.90;;;;;;5135765;27;20054;-69
2023/06/21 04:22:38;;;;;;;44.42;26.90;;;18.00;99.90;;;;;;5101769;27;20352;-70
2023/06/21 04:25:04;;;;;;;44.13;25.98;;;18.00;99.90;;;;;;5117497;27;20042;-68
2023/06/21 04:27:30;;;;;;;43.05;26.80;;;18.10;99.90;;;;;;5100453;27;20051;-68
2023/06/21 04:29:55;;;;;;;45.47;26.60;;;18.00;99.90;;;;;;5135598;27;20046;-69
2023/06/21 04:32:21;;;;;;;47.67;27.70;;;18.10;99.90;;;;;;5135623;27;20372;-69
2023/06/21 04:34:48;;;;;;;46.07;26.83;;;18.10;99.90;;;;;;5117256;27;20039;-69
2023/06/21 04:37:14;;;;;;;42.08;25.70;;;18.10;99.90;;;;;;5100613;27;20050;-68
2023/06/21 04:39:39;;;;;;;45.30;26.83;;;18.10;99.90;;;;;;5100074;27;20386;-68
2023/06/21 04:42:05;;;;;;;44.90;26.80;;;18.10;99.90;;;;;;5116755;27;20090;-69
2023/06/21 04:44:31;;;;;;;45.80;27.60;;;18.10;99.90;;;;;;5135268;27;20054;-69
2023/06/21 04:47:00;;;;;;;47.67;27.87;;;18.10;99.90;;;;;;5134759;27;20111;-70
2023/06/21 04:49:26;;;;;;;46.20;28.65;;;18.10;99.90;;;;;;5117175;27;20277;-69
2023/06/21 04:51:57;;;;;;;42.80;27.00;;;18.20;99.90;;;;;;5135034;27;20043;-69
2023/06/21 04:54:26;;;;;;;45.85;27.95;;;18.20;99.90;;;;;;5135307;27;20058;-70
2023/06/21 04:56:52;;;;;;;47.28;29.08;;;18.20;99.90;;;;;;5134741;27;20593;-68
2023/06/21 04:59:18;;;;;;;45.87;26.80;;;18.30;99.90;;;;;;5134970;27;20130;-68
2023/06/21 05:01:44;;;;;;;44.83;27.13;;;18.30;99.90;;;;;;5135573;27;20058;-67
2023/06/21 05:04:10;;;;;;;40.60;25.30;;;18.40;99.90;;;;;;5099907;27;20474;-68
2023/06/21 05:06:36;;;;;;;46.57;28.40;;;18.40;99.90;;;;;;5116176;27;20122;-68
2023/06/21 05:09:04;;;;;;;44.37;28.07;;;18.50;99.90;;;;;;5116690;27;20040;-68
2023/06/21 05:11:30;;;;;;;44.10;27.85;;;18.50;99.90;;;;;;5116491;27;20506;-68
2023/06/21 05:13:55;;;;;;;46.30;28.35;;;18.60;99.90;;;;;;5116338;27;20099;-67
2023/06/21 05:16:22;;;;;;;45.57;27.93;;;18.60;99.90;;;;;;5134677;27;20039;-69
2023/06/21 05:18:47;;;;;;;48.05;28.25;;;18.70;99.90;;;;;;5134757;27;20043;-70
2023/06/21 05:21:13;;;;;;;44.87;27.33;;;18.70;99.90;;;;;;5100201;27;20126;-69
2023/06/21 05:23:39;;;;;;;42.30;27.60;;;18.80;99.90;;;;;;5116214;27;20432;-69
2023/06/21 05:26:04;;;;;;;44.57;27.87;;;18.90;99.90;;;;;;5117072;27;20473;-69
2023/06/21 05:28:30;;;;;;;44.13;26.50;;;18.90;99.90;;;;;;5116207;27;20089;-69
2023/06/21 05:30:56;;;;;;;45.47;28.20;;;19.00;99.90;;;;;;5116099;27;20047;-69
2023/06/21 05:33:22;;;;;;;40.43;24.83;;;19.00;99.90;;;;;;5134599;27;20035;-68
2023/06/21 05:35:47;;;;;;;43.30;23.37;;;19.10;99.90;;;;;;5116229;28;20074;-68
2023/06/21 05:38:13;;;;;;;42.73;27.57;;;19.20;99.90;;;;;;5116073;28;20078;-69
2023/06/21 05:40:39;;;;;;;41.77;27.03;;;19.20;99.90;;;;;;5117006;27;20091;-69
2023/06/21 05:43:05;;;;;;;40.93;26.40;;;19.30;99.90;;;;;;5116089;28;20383;-68
2023/06/21 05:45:31;;;;;;;42.17;26.42;;;19.30;99.90;;;;;;5098800;28;20043;-70
2023/06/21 05:47:58;;;;;;;42.17;26.77;;;19.30;99.90;;;;;;5133935;28;20057;-70
2023/06/21 05:50:24;;;;;;;41.88;26.98;;;19.40;99.90;;;;;;5115978;28;20047;-69
2023/06/21 05:52:50;;;;;;;45.67;27.30;;;19.50;99.90;;;;;;5099571;28;20402;-70
2023/06/21 05:55:15;;;;;;;43.53;27.20;;;19.50;99.90;;;;;;5099374;28;20374;-68
2023/06/21 05:57:41;;;;;;;40.27;26.57;;;19.60;99.90;;;;;;5134304;28;20478;-69
2023/06/21 06:00:09;;;;;;;44.30;28.00;;;19.70;99.90;;;;;;5098624;28;20043;-71
2023/06/21 06:02:35;;;;;;;41.97;26.30;;;19.70;99.90;;;;;;5100149;28;20103;-70
2023/06/21 06:05:01;;;;;;;43.33;26.65;;;19.80;99.90;;;;;;5116160;28;20130;-70
2023/06/21 06:07:27;;;;;;;42.17;26.77;;;19.80;99.90;;;;;;5099423;28;20139;-71
2023/06/21 06:09:53;;;;;;;38.20;26.07;;;19.80;99.90;;;;;;5134561;28;20389;-70
2023/06/21 06:12:21;;;;;;;40.23;25.93;;;19.80;99.90;;;;;;5099702;28;20133;-70
2023/06/21 06:14:47;;;;;;;38.10;24.60;;;19.90;99.90;;;;;;5115856;28;20058;-70
2023/06/21 06:17:14;;;;;;;43.60;26.10;;;20.00;99.90;;;;;;5115952;28;20083;-70
2023/06/21 06:19:39;;;;;;;39.38;25.73;;;20.00;99.90;;;;;;5134215;28;20054;-70
2023/06/21 06:22:05;;;;;;;40.20;24.57;;;20.10;99.90;;;;;;5134882;28;20047;-70
2023/06/21 06:24:31;;;;;;;40.90;25.30;;;20.10;99.90;;;;;;5116654;28;20047;-70
2023/06/21 06:26:57;;;;;;;35.53;23.50;;;20.10;99.90;;;;;;5134995;28;20075;-68
2023/06/21 06:29:23;;;;;;;37.60;24.38;;;20.20;99.90;;;;;;5134254;28;20047;-70
2023/06/21 06:31:49;;;;;;;36.23;24.40;;;20.20;99.90;;;;;;5134842;28;20047;-70
2023/06/21 06:34:15;;;;;;;37.27;22.80;;;20.30;99.90;;;;;;5135117;27;20043;-69
2023/06/21 06:36:41;;;;;;;35.23;22.83;;;20.40;99.90;;;;;;5102396;27;20039;-71
2023/06/21 06:39:07;;;;;;;33.73;22.30;;;20.40;99.90;;;;;;5120355;27;20047;-71
2023/06/21 06:41:33;;;;;;;34.42;22.55;;;20.50;99.90;;;;;;5119822;27;20047;-71
2023/06/21 06:43:59;;;;;;;30.53;21.40;;;20.60;99.90;;;;;;5137806;27;20501;-69
2023/06/21 06:46:25;;;;;;;32.27;21.53;;;20.70;99.90;;;;;;5138928;27;20051;-70
2023/06/21 06:48:50;;;;;;;32.67;21.27;;;20.70;99.90;;;;;;5137485;27;20073;-71
2023/06/21 06:51:16;;;;;;;31.10;21.23;;;20.80;99.90;;;;;;5137571;27;20043;-70
2023/06/21 06:53:42;;;;;;;31.73;20.80;;;20.80;99.90;;;;;;5120345;27;20039;-70
2023/06/21 06:56:07;;;;;;;30.73;18.90;;;20.90;99.90;;;;;;5119078;27;20066;-70
2023/06/21 06:58:35;;;;;;;25.73;18.57;;;20.90;99.90;;;;;;5137639;27;20078;-71
2023/06/21 07:01:05;;;;;;;29.00;19.20;;;20.90;99.90;;;;;;5119267;27;20055;-69
2023/06/21 07:03:32;;;;;;;24.35;17.52;;;21.10;99.90;;;;;;5119237;27;20134;-70
2023/06/21 07:05:58;;;;;;;25.67;18.45;;;21.10;99.90;;;;;;5085115;27;20051;-70
2023/06/21 07:08:24;;;;;;;27.98;18.15;;;21.20;99.90;;;;;;5137264;27;20043;-72
2023/06/21 07:10:50;;;;;;;26.13;17.33;;;21.20;99.90;;;;;;5118870;27;20051;-70
2023/06/21 07:13:17;;;;;;;25.73;17.50;;;21.20;99.90;;;;;;5101735;27;20047;-71
2023/06/21 07:15:43;;;;;;;25.55;17.10;;;21.20;99.90;;;;;;5102602;27;20184;-71
2023/06/21 07:18:10;;;;;;;21.42;15.77;;;21.40;99.90;;;;;;5136993;27;20050;-72
2023/06/21 07:20:36;;;;;;;21.55;15.25;;;21.40;99.90;;;;;;5137054;27;20095;-71
2023/06/21 07:23:02;;;;;;;23.00;14.80;;;21.50;99.90;;;;;;5137716;27;20138;-72
2023/06/21 07:25:28;;;;;;;22.48;15.00;;;21.70;99.90;;;;;;5118253;27;20419;-71
2023/06/21 07:27:54;;;;;;;21.97;14.87;;;21.70;99.90;;;;;;5118748;27;20050;-71
2023/06/21 07:30:22;;;;;;;21.50;13.57;;;21.80;99.90;;;;;;5102212;27;20136;-69
2023/06/21 07:32:48;;;;;;;21.63;14.02;;;21.80;99.90;;;;;;5118580;27;20130;-72
2023/06/21 07:35:14;;;;;;;20.85;15.27;;;21.80;99.90;;;;;;5136724;27;20471;-72
2023/06/21 07:37:43;;;;;;;20.73;14.38;;;21.80;99.90;;;;;;5136492;27;20043;-74
2023/06/21 07:40:10;;;;;;;20.40;14.52;;;21.80;99.90;;;;;;5136458;27;20051;-72
2023/06/21 07:42:37;;;;;;;21.95;14.13;;;21.70;99.90;;;;;;5118572;27;20047;-70
2023/06/21 07:45:04;;;;;;;21.88;14.30;;;22.00;99.90;;;;;;5136276;27;20102;-71
2023/06/21 07:47:30;;;;;;;20.42;14.00;;;22.10;99.90;;;;;;5136540;27;20043;-71
2023/06/21 07:49:56;;;;;;;20.08;13.43;;;22.20;99.90;;;;;;5136496;27;20051;-70
2023/06/21 07:52:22;;;;;;;19.93;12.37;;;22.30;99.90;;;;;;5101488;27;20043;-71
2023/06/21 07:54:49;;;;;;;22.03;12.90;;;22.30;99.90;;;;;;5136282;27;20099;-71
2023/06/21 07:57:18;;;;;;;20.15;12.80;;;22.40;99.90;;;;;;5101160;27;20043;-70
2023/06/21 07:59:45;;;;;;;16.25;10.82;;;22.40;99.90;;;;;;5118334;27;20054;-70
2023/06/21 08:02:13;;;;;;;16.85;11.30;;;22.40;99.90;;;;;;5135888;27;20511;-71
2023/06/21 08:04:42;;;;;;;17.50;11.32;;;22.30;99.90;;;;;;5136170;27;20043;-71
2023/06/21 08:07:08;;;;;;;15.60;11.18;;;22.50;99.90;;;;;;5135730;27;20043;-70
2023/06/21 08:09:33;;;;;;;16.93;11.23;;;22.50;99.90;;;;;;5101838;27;20050;-71
2023/06/21 08:12:00;;;;;;;16.60;10.70;;;22.60;99.90;;;;;;5101020;27;20072;-70
2023/06/21 08:14:26;;;;;;;15.98;10.52;;;22.70;99.90;;;;;;5136035;27;20051;-70
2023/06/21 08:16:52;;;;;;;21.92;11.07;;;22.80;99.90;;;;;;5135983;27;20083;-69
2023/06/21 08:19:18;;;;;;;15.90;10.43;;;22.90;99.90;;;;;;5135854;27;20081;-71
2023/06/21 08:21:44;;;;;;;16.03;9.77;;;22.80;99.90;;;;;;5101051;27;20748;-70
2023/06/21 08:24:10;;;;;;;14.68;10.40;;;23.00;99.90;;;;;;5100622;27;20045;-71
2023/06/21 08:26:36;;;;;;;16.77;11.70;;;23.00;99.90;;;;;;5135566;27;20053;-70
2023/06/21 08:29:02;;;;;;;13.80;10.10;;;23.00;99.90;;;;;;5135897;27;20122;-70
2023/06/21 08:31:28;;;;;;;13.47;9.03;;;23.00;99.90;;;;;;5117209;27;20046;-70
2023/06/21 08:33:54;;;;;;;15.73;9.67;;;23.10;99.90;;;;;;5117414;27;20088;-69
2023/06/21 08:36:19;;;;;;;13.98;9.90;;;23.10;99.90;;;;;;5117043;27;20092;-69
2023/06/21 08:38:45;;;;;;;16.00;9.53;;;23.20;99.90;;;;;;5117254;27;20086;-71
2023/06/21 08:41:11;;;;;;;13.05;9.23;;;23.20;99.90;;;;;;5117685;27;20382;-73
2023/06/21 08:43:37;;;;;;;15.70;9.65;;;23.20;99.90;;;;;;5116995;27;20130;-69
2023/06/21 08:46:06;;;;;;;13.80;9.23;;;23.20;99.90;;;;;;5135697;27;20125;-71
2023/06/21 08:48:32;;;;;;;14.88;9.80;;;23.20;99.90;;;;;;5135855;27;20395;-71
2023/06/21 08:51:04;;;;;;;11.75;9.13;;;23.40;99.90;;;;;;5117506;27;20054;-69
2023/06/21 08:53:38;;;;;;;11.45;7.25;;;23.70;99.90;;;;;;5116866;27;20047;-70
2023/06/21 08:56:06;;;;;;;9.65;6.88;;;24.00;99.90;;;;;;5134931;27;20042;-71
2023/06/21 08:58:45;;;;;;;14.70;8.32;;;24.10;99.90;;;;;;5134838;27;20483;-71
2023/06/21 09:01:15;;;;;;;11.85;8.27;;;24.30;99.90;;;;;;5135404;27;20058;-70
2023/06/21 09:03:58;;;;;;;10.70;7.05;;;24.30;99.90;;;;;;5116341;27;20045;-70
2023/06/21 09:06:26;;;;;;;11.05;6.93;;;24.30;99.90;;;;;;5135888;27;20039;-70
2023/06/21 09:08:53;;;;;;;11.88;6.85;;;24.20;99.90;;;;;;5134818;27;20542;-70
2023/06/21 09:11:21;;;;;;;11.63;7.20;;;24.30;99.90;;;;;;5135161;27;20069;-71
2023/06/21 09:13:47;;;;;;;10.40;6.75;;;24.30;99.90;;;;;;5100681;27;20039;-70
2023/06/21 09:16:13;;;;;;;;;;;24.30;99.90;;;;;;5136302;27;20046;-71
2023/06/21 09:18:40;;;;;;;6.47;3.75;;;24.30;99.90;;;;;;5117000;27;20316;-69
2023/06/21 09:21:10;;;;;;;8.63;3.80;;;24.30;99.90;;;;;;5099632;27;20397;-70
2023/06/21 09:23:38;;;;;;;7.32;4.30;;;24.30;99.90;;;;;;5116817;27;20112;-70
2023/06/21 09:26:04;;;;;;;9.68;4.88;;;24.30;99.90;;;;;;5116485;27;20086;-71
2023/06/21 09:28:30;;;;;;;9.47;5.80;;;24.30;99.90;;;;;;5116895;27;20065;-72
2023/06/21 09:30:55;;;;;;;13.75;6.18;;;24.30;99.90;;;;;;5099448;27;20129;-71
2023/06/21 09:33:24;;;;;;;10.10;6.43;;;24.40;99.90;;;;;;5116199;27;20118;-71
2023/06/21 09:35:50;;;;;;;10.02;6.20;;;24.50;99.90;;;;;;5135077;27;20130;-70
2023/06/21 09:38:33;;;;;;;12.45;7.07;;;24.50;99.90;;;;;;5117235;28;20126;-71
2023/06/21 09:41:03;;;;;;;11.85;7.78;;;24.70;99.90;;;;;;5117224;27;20058;-71
2023/06/21 09:43:28;;;;;;;11.10;6.82;;;24.90;99.90;;;;;;5134371;27;20067;-70
2023/06/21 09:46:05;;;;;;;7.87;5.27;;;25.00;99.90;;;;;;5115986;28;20080;-70
2023/06/21 09:48:40;;;;;;;9.68;6.05;;;25.10;99.90;;;;;;5135177;28;20055;-71
2023/06/21 09:51:08;;;;;;;11.90;6.63;;;25.00;99.90;;;;;;5135551;28;20047;-70
2023/06/21 09:53:35;;;;;;;10.82;6.97;;;24.80;99.90;;;;;;5134585;28;20382;-69
2023/06/21 09:56:01;;;;;;;;;;;24.90;99.90;;;;;;5116702;28;20452;-70
2023/06/21 09:58:28;;;;;;;10.77;7.10;;;24.90;99.90;;;;;;5115912;28;20018;-69
2023/06/21 10:00:56;;;;;;;;;;;24.90;99.90;;;;;;5117139;28;20082;-69
2023/06/21 10:03:23;;;;;;;10.13;6.47;;;24.70;99.90;;;;;;5134247;28;20287;-71
2023/06/21 10:06:01;;;;;;;12.27;7.03;;;24.70;99.90;;;;;;5134169;28;20042;-70
2023/06/21 10:08:36;;;;;;;10.38;7.00;;;24.70;99.90;;;;;;5117479;27;20044;-71
2023/06/21 10:11:03;;;;;;;9.85;6.75;;;24.60;99.90;;;;;;5120682;27;20047;-72
2023/06/21 10:13:31;;;;;;;11.48;6.68;;;24.40;99.90;;;;;;5138296;27;20043;-70
2023/06/21 10:16:00;;;;;;;9.13;6.38;;;24.50;99.90;;;;;;5103222;27;20059;-70
2023/06/21 10:18:26;;;;;;;9.38;6.45;;;24.60;99.90;;;;;;5138159;27;20175;-78
2023/06/21 10:21:02;;;;;;;9.25;6.30;;;24.60;99.90;;;;;;5119807;27;20436;-70
2023/06/21 10:23:31;;;;;;;10.50;6.90;;;24.80;99.90;;;;;;5138569;27;20039;-70
2023/06/21 10:26:01;;;;;;;12.57;6.97;;;25.10;99.90;;;;;;5119899;27;20489;-70
2023/06/21 10:28:30;;;;;;;9.25;6.40;;;25.40;99.90;;;;;;5138001;27;20135;-78
2023/06/21 10:30:57;;;;;;;12.50;6.97;;;25.50;99.90;;;;;;5119583;27;20082;-71
2023/06/21 10:33:23;;;;;;;11.60;6.63;;;25.40;99.90;;;;;;5137933;27;20047;-70
2023/06/21 10:35:53;;;;;;;11.02;6.18;;;25.50;99.90;;;;;;5137812;27;20053;-70
2023/06/21 10:38:37;;;;;;;11.45;6.97;;;25.70;99.90;;;;;;5102656;27;20134;-70
2023/06/21 10:41:05;;;;;;;9.35;5.05;;;25.60;99.90;;;;;;5120136;27;20086;-70
2023/06/21 10:43:32;;;;;;;7.60;4.97;;;25.90;99.90;;;;;;5137567;27;20127;-72
2023/06/21 10:45:58;;;;;;;9.55;5.53;;;26.10;99.90;;;;;;5119316;27;20047;-70
2023/06/21 10:48:25;;;;;;;9.15;5.05;;;26.10;99.90;;;;;;5119537;27;20047;-70
2023/06/21 10:50:52;;;;;;;8.68;5.47;;;26.10;99.90;;;;;;5103139;27;20136;-68
2023/06/21 10:53:18;;;;;;;;;;;26.10;99.90;;;;;;5119711;27;20478;-71
2023/06/21 10:55:46;;;;;;;;;;;25.90;99.90;;;;;;5120087;27;19977;-71
2023/06/21 10:58:13;;;;;;;7.10;4.50;;;25.90;99.90;;;;;;5119134;27;19919;-71
2023/06/21 11:00:41;;;;;;;9.60;5.53;;;26.00;99.90;;;;;;5118881;27;20059;-72
2023/06/21 11:03:15;;;;;;;10.50;5.57;;;26.10;99.90;;;;;;5138411;27;20043;-71
2023/06/21 11:05:41;;;;;;;7.07;4.47;;;26.20;99.90;;;;;;5119321;27;20046;-70
2023/06/21 11:08:09;;;;;;;8.68;5.80;;;26.40;99.90;;;;;;5102088;27;20039;-71
2023/06/21 11:10:46;;;;;;;7.80;4.50;;;26.60;99.90;;;;;;5137230;27;20142;-71
2023/06/21 11:13:13;;;;;;;11.10;5.75;;;26.80;99.90;;;;;;5119291;27;20386;-70
2023/06/21 11:15:42;;;;;;;8.55;5.28;;;26.80;99.90;;;;;;5136997;27;20036;-71
2023/06/21 11:18:09;;;;;;;8.38;4.97;;;27.00;99.90;;;;;;5119756;27;20044;-72
2023/06/21 11:20:45;;;;;;;9.45;5.30;;;27.00;99.90;;;;;;5136370;27;20074;-72
2023/06/21 11:23:18;;;;;;;8.02;5.20;;;26.70;99.90;;;;;;5136998;27;20055;-71
2023/06/21 11:25:52;;;;;;;9.07;5.57;;;26.60;99.90;;;;;;5137323;27;20066;-70
2023/06/21 11:28:18;;;;;;;8.00;5.25;;;26.40;99.90;;;;;;5137379;27;20050;-71
2023/06/21 11:31:10;;;;;;;7.30;4.63;;;26.30;99.90;;;;;;5136733;27;20047;-71
2023/06/21 11:33:52;;;;;;;6.15;4.15;;;26.40;99.90;;;;;;5136790;27;20096;-73
2023/06/21 11:36:23;;;;;;;7.80;4.30;;;26.50;99.90;;;;;;5136748;27;20043;-70
2023/06/21 11:39:04;;;;;;;7.18;4.60;;;26.70;99.90;;;;;;5118279;27;20054;-71
2023/06/21 11:41:45;;;;;;;7.97;4.85;;;26.80;99.90;;;;;;5136735;27;20130;-71
2023/06/21 11:44:12;;;;;;;10.40;5.07;;;26.80;99.90;;;;;;5118491;27;20046;-71
2023/06/21 11:46:39;;;;;;;10.05;5.78;;;26.80;99.90;;;;;;5136379;27;20039;-72
2023/06/21 11:49:05;;;;;;;;;;;26.60;99.90;;;;;;5118852;27;20050;-69
2023/06/21 11:51:34;;;;;;;7.82;5.22;;;26.50;99.90;;;;;;5118193;27;19920;-72
2023/06/21 11:54:01;;;;;;;9.20;5.45;;;26.30;99.90;;;;;;5118214;27;20043;-72
2023/06/21 11:56:32;;;;;;;8.75;5.22;;;26.10;99.90;;;;;;5118334;27;20039;-72
2023/06/21 11:59:01;;;;;;;7.10;4.95;;;26.00;99.90;;;;;;5117874;27;20164;-71
2023/06/21 12:01:27;;;;;;;9.18;5.60;;;25.90;99.90;;;;;;5136321;27;20066;-71
2023/06/21 12:04:00;;;;;;;9.90;6.47;;;25.90;99.90;;;;;;5118799;27;20123;-71
2023/06/21 12:06:26;;;;;;;9.68;5.65;;;26.00;99.90;;;;;;5118530;27;20139;-71
2023/06/21 12:08:58;;;;;;;8.55;5.15;;;25.90;99.90;;;;;;5117747;27;20049;-71
2023/06/21 12:11:28;;;;;;;10.40;5.43;;;25.90;99.90;;;;;;5136983;27;20050;-71
2023/06/21 12:13:54;;;;;;;9.25;5.57;;;26.00;99.90;;;;;;5136041;27;20043;-70
2023/06/21 12:16:23;;;;;;;9.38;5.93;;;26.30;99.90;;;;;;5135919;27;20045;-71
2023/06/21 12:18:49;;;;;;;9.75;5.65;;;26.40;99.90;;;;;;5117023;27;20047;-72
2023/06/21 12:21:15;;;;;;;7.07;4.80;;;26.40;99.90;;;;;;5118236;27;20066;-72
2023/06/21 12:23:41;;;;;;;9.57;6.65;;;26.50;99.90;;;;;;5100662;27;20050;-79
2023/06/21 12:26:07;;;;;;;12.43;6.50;;;26.50;99.90;;;;;;5117377;27;20040;-73
2023/06/21 12:28:34;;;;;;;11.50;6.15;;;26.30;99.90;;;;;;5117386;27;20039;-71
2023/06/21 12:31:02;;;;;;;9.57;5.80;;;26.50;99.90;;;;;;5100183;28;20107;-70
2023/06/21 12:33:36;;;;;;;6.72;4.00;;;26.80;99.90;;;;;;5135906;27;20391;-70
2023/06/21 12:36:17;;;;;;;7.68;4.20;;;27.00;99.90;;;;;;5136100;27;20431;-71
2023/06/21 12:39:07;;;;;;;7.22;3.85;;;26.80;99.90;;;;;;5117086;27;20482;-78